createdAt,value
2022-10-07T00:00:46.726Z,98762.81
2022-10-07T00:03:14.411Z,98771.56
2022-10-07T00:05:41.715Z,98751.13
2022-10-07T00:08:08.337Z,98749.84
2022-10-07T00:10:43.225Z,98749.13
2022-10-07T00:13:12.116Z,98748.38
2022-10-07T00:15:39.089Z,98749.66
2022-10-07T00:18:06.034Z,98752.53
2022-10-07T00:20:39.739Z,98752.13
2022-10-07T00:23:08.133Z,98747.22
2022-10-07T00:25:38.000Z,98753.88
2022-10-07T00:28:05.241Z,98743.31
2022-10-07T00:30:32.225Z,98737.72
2022-10-07T00:32:58.897Z,98735.00
2022-10-07T00:35:25.501Z,98733.13
2022-10-07T00:37:52.329Z,98740.75
2022-10-07T00:40:18.932Z,98732.88
2022-10-07T00:42:45.725Z,98722.50
2022-10-07T00:45:18.106Z,98720.88
2022-10-07T00:47:48.021Z,98717.03
2022-10-07T00:50:20.633Z,98710.44
2022-10-07T00:53:02.767Z,98712.94
2022-10-07T00:55:31.892Z,98705.59
2022-10-07T00:58:02.956Z,98706.13
2022-10-07T01:00:30.274Z,98703.75
2022-10-07T01:02:56.845Z,98698.59
2022-10-07T01:05:23.666Z,98700.72
2022-10-07T01:07:50.815Z,98692.88
2022-10-07T01:10:21.708Z,98681.81
2022-10-07T01:13:19.456Z,98686.84
2022-10-07T01:15:50.280Z,98677.41
2022-10-07T01:18:26.413Z,98673.03
2022-10-07T01:21:34.713Z,98677.00
2022-10-07T01:24:18.662Z,98670.78
2022-10-07T01:27:01.931Z,98665.13
2022-10-07T01:29:39.595Z,98665.13
2022-10-07T01:32:27.366Z,98661.66
2022-10-07T01:34:55.910Z,98654.72
2022-10-07T01:37:27.344Z,98653.59
2022-10-07T01:39:58.657Z,98653.53
2022-10-07T01:42:28.384Z,98649.84
2022-10-07T01:44:58.094Z,98648.38
2022-10-07T01:47:28.534Z,98649.13
2022-10-07T01:49:55.221Z,98641.66
2022-10-07T01:53:12.793Z,98648.38
2022-10-07T01:56:03.643Z,98634.00
2022-10-07T01:59:10.703Z,98636.19
2022-10-07T02:02:10.552Z,98631.84
2022-10-07T02:05:25.370Z,98623.31
2022-10-07T02:08:32.393Z,98621.25
2022-10-07T02:11:25.831Z,98628.19
2022-10-07T02:14:08.239Z,98611.25
2022-10-07T02:16:42.195Z,98620.59
2022-10-07T02:19:18.306Z,98607.44
2022-10-07T02:21:49.183Z,98611.66
2022-10-07T02:24:17.927Z,98608.38
2022-10-07T02:26:45.945Z,98606.31
2022-10-07T02:29:16.445Z,98603.19
2022-10-07T02:31:45.183Z,98610.84
2022-10-07T02:34:19.950Z,98603.53
2022-10-07T02:37:14.845Z,98609.19
2022-10-07T02:39:43.755Z,98606.25
2022-10-07T02:42:30.817Z,98603.63
2022-10-07T02:45:26.843Z,98598.50
2022-10-07T02:48:01.944Z,98587.72
2022-10-07T02:50:37.438Z,98591.91
2022-10-07T02:53:05.800Z,98596.84
2022-10-07T02:55:34.367Z,98597.25
2022-10-07T02:58:05.369Z,98590.69
2022-10-07T03:00:35.702Z,98591.97
2022-10-07T03:03:05.132Z,98590.69
2022-10-07T03:05:34.977Z,98585.63
2022-10-07T03:08:05.869Z,98590.34
2022-10-07T03:10:32.655Z,98586.31
2022-10-07T03:12:59.258Z,98583.03
2022-10-07T03:15:26.113Z,98583.97
2022-10-07T03:17:52.890Z,98578.28
2022-10-07T03:20:19.467Z,98579.34
2022-10-07T03:22:46.051Z,98586.72
2022-10-07T03:25:13.815Z,98585.97
2022-10-07T03:27:42.903Z,98575.94
2022-10-07T03:30:11.202Z,98589.63
2022-10-07T03:32:41.480Z,98580.69
2022-10-07T03:35:08.892Z,98577.22
2022-10-07T03:37:36.438Z,98578.59
2022-10-07T03:40:03.468Z,98584.78
2022-10-07T03:42:30.075Z,98578.03
2022-10-07T03:44:56.669Z,98572.97
2022-10-07T03:47:23.448Z,98574.63
2022-10-07T03:49:50.225Z,98566.63
2022-10-07T03:52:16.772Z,98569.75
2022-10-07T03:54:43.578Z,98567.78
2022-10-07T03:57:28.718Z,98561.38
2022-10-07T03:59:55.360Z,98569.47
2022-10-07T04:02:23.519Z,98560.72
2022-10-07T04:04:53.312Z,98567.09
2022-10-07T04:07:22.130Z,98563.09
2022-10-07T04:09:48.902Z,98559.63
2022-10-07T04:12:15.702Z,98547.78
2022-10-07T04:14:42.364Z,98546.50
2022-10-07T04:17:09.190Z,98552.91
2022-10-07T04:19:35.790Z,98553.09
2022-10-07T04:22:08.288Z,98556.03
2022-10-07T04:24:35.578Z,98547.47
2022-10-07T04:27:05.009Z,98543.66
2022-10-07T04:29:36.586Z,98546.00
2022-10-07T04:32:05.772Z,98543.81
2022-10-07T04:34:32.315Z,98544.53
2022-10-07T04:37:01.283Z,98539.28
2022-10-07T04:39:49.094Z,98542.34
2022-10-07T04:42:34.690Z,98540.19
2022-10-07T04:45:01.264Z,98535.47
2022-10-07T04:47:27.876Z,98531.28
2022-10-07T04:49:55.210Z,98531.47
2022-10-07T04:52:21.894Z,98532.41
2022-10-07T04:54:48.487Z,98537.34
2022-10-07T04:57:15.075Z,98540.44
2022-10-07T04:59:42.986Z,98539.72
2022-10-07T05:02:09.904Z,98546.28
2022-10-07T05:04:37.090Z,98541.19
2022-10-07T05:07:04.247Z,98538.78
2022-10-07T05:09:30.828Z,98535.72
2022-10-07T05:11:57.423Z,98533.53
2022-10-07T05:14:24.291Z,98533.16
2022-10-07T05:16:51.666Z,98541.19
2022-10-07T05:19:18.724Z,98537.91
2022-10-07T05:21:45.871Z,98536.44
2022-10-07T05:24:12.578Z,98543.03
2022-10-07T05:26:39.151Z,98532.47
2022-10-07T05:29:06.930Z,98536.13
2022-10-07T05:31:33.574Z,98533.41
2022-10-07T05:34:00.530Z,98531.03
2022-10-07T05:36:27.255Z,98536.88
2022-10-07T05:38:58.095Z,98536.16
2022-10-07T05:41:25.398Z,98531.59
2022-10-07T05:43:52.109Z,98537.25
2022-10-07T05:46:23.729Z,98530.88
2022-10-07T05:48:52.432Z,98530.34
2022-10-07T05:51:20.281Z,98531.97
2022-10-07T05:53:47.317Z,98531.81
2022-10-07T05:56:21.458Z,98534.75
2022-10-07T05:58:49.344Z,98530.91
2022-10-07T06:01:21.364Z,98538.75
2022-10-07T06:03:53.038Z,98541.16
2022-10-07T06:06:20.388Z,98536.06
2022-10-07T06:08:47.399Z,98544.28
2022-10-07T06:11:35.013Z,98538.41
2022-10-07T06:14:02.923Z,98541.16
2022-10-07T06:16:29.625Z,98537.88
2022-10-07T06:18:57.039Z,98541.53
2022-10-07T06:21:28.615Z,98547.91
2022-10-07T06:23:57.906Z,98536.59
2022-10-07T06:26:24.666Z,98542.28
2022-10-07T06:28:51.231Z,98539.56
2022-10-07T06:31:22.626Z,98546.69
2022-10-07T06:33:49.991Z,98546.69
2022-10-07T06:36:17.406Z,98540.66
2022-10-07T06:38:45.754Z,98545.03
2022-10-07T06:41:12.335Z,98546.13
2022-10-07T06:43:38.918Z,98547.78
2022-10-07T06:46:07.024Z,98539.19
2022-10-07T06:48:35.039Z,98544.69
2022-10-07T06:51:06.112Z,98541.75
2022-10-07T06:53:33.269Z,98545.41
2022-10-07T06:56:04.399Z,98543.41
2022-10-07T06:58:31.032Z,98553.47
2022-10-07T07:00:59.654Z,98545.25
2022-10-07T07:03:27.339Z,98542.88
2022-10-07T07:05:56.934Z,98544.00
2022-10-07T07:08:31.851Z,98539.59
2022-10-07T07:11:26.292Z,98539.81
2022-10-07T07:13:53.227Z,98532.13
2022-10-07T07:16:19.931Z,98540.88
2022-10-07T07:18:51.639Z,98540.34
2022-10-07T07:21:18.391Z,98542.16
2022-10-07T07:23:45.707Z,98537.25
2022-10-07T07:26:13.036Z,98540.72
2022-10-07T07:28:39.656Z,98537.41
2022-10-07T07:31:10.665Z,98542.53
2022-10-07T07:33:38.372Z,98541.44
2022-10-07T07:36:16.522Z,98534.13
2022-10-07T07:38:43.926Z,98539.78
2022-10-07T07:41:11.233Z,98533.94
2022-10-07T07:43:37.857Z,98533.56
2022-10-07T07:46:05.056Z,98532.44
2022-10-07T07:48:31.889Z,98534.25
2022-10-07T07:50:58.521Z,98534.06
2022-10-07T07:53:27.666Z,98537.91
2022-10-07T07:55:57.778Z,98526.75
2022-10-07T07:58:24.604Z,98524.94
2022-10-07T08:01:06.469Z,98525.47
2022-10-07T08:03:37.336Z,98517.59
2022-10-07T08:06:06.440Z,98522.91
2022-10-07T08:08:34.335Z,98520.53
2022-10-07T08:11:12.812Z,98522.19
2022-10-07T08:13:41.252Z,98516.09
2022-10-07T08:16:09.923Z,98507.13
2022-10-07T08:18:36.978Z,98509.66
2022-10-07T08:21:05.181Z,98502.16
2022-10-07T08:23:32.147Z,98505.06
2022-10-07T08:26:00.026Z,98502.50
2022-10-07T08:28:27.707Z,98511.44
2022-10-07T08:30:55.189Z,98503.97
2022-10-07T08:33:22.521Z,98501.56
2022-10-07T08:35:57.935Z,98504.31
2022-10-07T08:38:24.954Z,98506.13
2022-10-07T08:40:53.570Z,98507.38
2022-10-07T08:43:23.770Z,98503.69
2022-10-07T08:45:52.814Z,98496.03
2022-10-07T08:48:29.374Z,98501.28
2022-10-07T08:51:05.155Z,98500.56
2022-10-07T08:53:34.448Z,98495.03
2022-10-07T08:56:09.985Z,98497.78
2022-10-07T08:59:32.580Z,98504.53
2022-10-07T09:02:40.147Z,98489.69
2022-10-07T09:05:34.094Z,98487.63
2022-10-07T09:08:17.771Z,98482.66
2022-10-07T09:10:50.217Z,98484.44
2022-10-07T09:13:34.450Z,98483.50
2022-10-07T09:16:11.239Z,98474.13
2022-10-07T09:18:41.030Z,98471.56
2022-10-07T09:21:16.558Z,98473.56
2022-10-07T09:23:43.398Z,98473.50
2022-10-07T09:26:12.821Z,98466.91
2022-10-07T09:28:39.897Z,98465.66
2022-10-07T09:31:07.678Z,98467.91
2022-10-07T09:33:42.032Z,98465.72
2022-10-07T09:36:18.331Z,98463.31
2022-10-07T09:38:48.067Z,98456.34
2022-10-07T09:41:22.904Z,98467.75
2022-10-07T09:43:57.319Z,98468.47
2022-10-07T09:46:53.059Z,98456.31
2022-10-07T09:49:45.074Z,98460.16
2022-10-07T09:52:26.494Z,98460.69
2022-10-07T09:54:55.774Z,98464.47
2022-10-07T09:57:35.242Z,98457.22
2022-10-07T10:00:23.133Z,98462.31
2022-10-07T10:02:54.137Z,98459.63
2022-10-07T10:05:27.898Z,98453.66
2022-10-07T10:08:01.690Z,98447.91
2022-10-07T10:10:36.319Z,98449.63
2022-10-07T10:13:05.655Z,98449.84
2022-10-07T10:15:43.165Z,98444.91
2022-10-07T10:18:39.713Z,98440.88
2022-10-07T10:21:23.088Z,98442.09
2022-10-07T10:23:53.378Z,98437.03
2022-10-07T10:26:36.664Z,98443.81
2022-10-07T10:29:29.480Z,98438.94
2022-10-07T10:32:09.014Z,98445.91
2022-10-07T10:35:34.283Z,98437.75
2022-10-07T10:38:19.689Z,98431.06
2022-10-07T10:41:03.154Z,98431.84
2022-10-07T10:43:55.168Z,98424.97
2022-10-07T10:46:27.404Z,98417.22
2022-10-07T10:49:17.192Z,98417.13
2022-10-07T10:52:20.774Z,98420.97
2022-10-07T10:55:22.806Z,98412.44
2022-10-07T10:58:16.714Z,98409.22
2022-10-07T11:01:28.083Z,98410.84
2022-10-07T11:04:20.732Z,98404.59
2022-10-07T11:06:58.749Z,98394.91
2022-10-07T11:09:41.780Z,98400.41
2022-10-07T11:12:23.723Z,98390.63
2022-10-07T11:14:57.941Z,98389.88
2022-10-07T11:17:30.840Z,98384.63
2022-10-07T11:20:18.847Z,98393.38
2022-10-07T11:22:52.574Z,98385.03
2022-10-07T11:25:31.124Z,98380.03
2022-10-07T11:28:07.193Z,98378.47
2022-10-07T11:30:45.622Z,98379.06
2022-10-07T11:33:20.394Z,98378.00
2022-10-07T11:36:03.881Z,98375.44
2022-10-07T11:38:35.746Z,98376.88
2022-10-07T11:41:22.474Z,98369.19
2022-10-07T11:43:58.325Z,98365.88
2022-10-07T11:46:32.285Z,98365.38
2022-10-07T11:49:31.524Z,98357.88
2022-10-07T11:52:01.019Z,98347.59
2022-10-07T11:54:31.761Z,98342.56
2022-10-07T11:57:00.560Z,98340.91
2022-10-07T11:59:44.442Z,98329.91
2022-10-07T12:02:49.715Z,98324.97
2022-10-07T12:05:57.647Z,98326.19
2022-10-07T12:08:35.863Z,98322.78
2022-10-07T12:11:39.674Z,98315.00
2022-10-07T12:14:32.781Z,98322.78
2022-10-07T12:17:18.620Z,98317.75
2022-10-07T12:19:45.409Z,98310.56
2022-10-07T12:22:15.348Z,98307.00
2022-10-07T12:24:46.037Z,98308.78
2022-10-07T12:27:24.435Z,98303.16
2022-10-07T12:30:02.071Z,98307.66
2022-10-07T12:32:56.367Z,98297.16
2022-10-07T12:35:54.567Z,98296.59
2022-10-07T12:38:30.871Z,98293.13
2022-10-07T12:41:14.951Z,98297.06
2022-10-07T12:44:37.090Z,98286.88
2022-10-07T12:47:19.249Z,98286.56
2022-10-07T12:50:01.810Z,98285.25
2022-10-07T12:53:00.927Z,98279.97
2022-10-07T12:55:37.306Z,98281.13
2022-10-07T12:59:04.619Z,98276.81
2022-10-07T13:01:59.316Z,98269.97
2022-10-07T13:04:58.662Z,98267.31
2022-10-07T13:07:54.368Z,98266.31
2022-10-07T13:10:42.474Z,98262.75
2022-10-07T13:13:21.721Z,98265.31
2022-10-07T13:15:56.936Z,98260.22
2022-10-07T13:19:07.131Z,98257.94
2022-10-07T13:21:43.948Z,98250.78
2022-10-07T13:24:18.602Z,98254.44
2022-10-07T13:26:46.022Z,98250.56
2022-10-07T13:29:39.415Z,98244.84
2022-10-07T13:32:37.058Z,98239.97
2022-10-07T13:35:36.213Z,98234.59
2022-10-07T13:38:05.493Z,98238.13
2022-10-07T13:40:35.733Z,98232.78
2022-10-07T13:43:07.192Z,98225.97
2022-10-07T13:45:43.605Z,98224.81
2022-10-07T13:48:23.488Z,98220.00
2022-10-07T13:50:53.827Z,98217.06
2022-10-07T13:53:26.215Z,98221.56
2022-10-07T13:56:04.338Z,98213.97
2022-10-07T13:58:33.216Z,98211.31
2022-10-07T14:01:04.485Z,98206.88
2022-10-07T14:03:31.470Z,98205.16
2022-10-07T14:05:58.122Z,98199.13
2022-10-07T14:08:30.409Z,98201.75
2022-10-07T14:11:13.179Z,98200.44
2022-10-07T14:13:43.147Z,98195.06
2022-10-07T14:16:22.355Z,98196.38
2022-10-07T14:18:49.635Z,98196.91
2022-10-07T14:21:17.423Z,98194.34
2022-10-07T14:23:46.993Z,98186.06
2022-10-07T14:26:18.041Z,98183.91
2022-10-07T14:28:45.123Z,98183.91
2022-10-07T14:31:39.502Z,98174.16
2022-10-07T14:34:35.546Z,98166.91
2022-10-07T14:37:31.071Z,98164.44
2022-10-07T14:39:58.624Z,98160.19
2022-10-07T14:42:30.361Z,98159.44
2022-10-07T14:44:57.871Z,98155.34
2022-10-07T14:47:28.104Z,98156.50
2022-10-07T14:49:56.861Z,98148.09
2022-10-07T14:52:35.310Z,98149.97
2022-10-07T14:55:17.033Z,98148.53
2022-10-07T14:57:44.214Z,98139.84
2022-10-07T15:00:20.234Z,98135.38
2022-10-07T15:02:47.806Z,98131.13
2022-10-07T15:05:14.979Z,98129.84
2022-10-07T15:07:42.488Z,98129.09
2022-10-07T15:10:21.510Z,98127.50
2022-10-07T15:12:48.659Z,98128.56
2022-10-07T15:15:16.030Z,98131.13
2022-10-07T15:17:43.176Z,98130.56
2022-10-07T15:20:12.048Z,98129.84
2022-10-07T15:22:38.810Z,98124.75
2022-10-07T15:25:06.922Z,98116.19
2022-10-07T15:27:33.855Z,98120.84
2022-10-07T15:30:00.521Z,98118.66
2022-10-07T15:32:30.267Z,98120.63
2022-10-07T15:34:58.079Z,98125.25
2022-10-07T15:37:27.691Z,98118.25
2022-10-07T15:39:54.777Z,98115.19
2022-10-07T15:42:24.227Z,98112.00
2022-10-07T15:44:51.821Z,98116.59
2022-10-07T15:47:18.833Z,98122.66
2022-10-07T15:49:45.473Z,98117.69
2022-10-07T15:52:12.325Z,98123.13
2022-10-07T15:54:39.158Z,98120.88
2022-10-07T15:57:06.249Z,98119.88
2022-10-07T15:59:33.020Z,98117.41
2022-10-07T16:01:59.858Z,98119.25
2022-10-07T16:04:26.872Z,98113.44
2022-10-07T16:06:53.462Z,98111.81
2022-10-07T16:09:23.698Z,98103.13
2022-10-07T16:11:50.437Z,98100.19
2022-10-07T16:14:17.119Z,98107.00
2022-10-07T16:16:43.973Z,98103.75
2022-10-07T16:19:12.237Z,98099.56
2022-10-07T16:21:41.413Z,98097.63
2022-10-07T16:24:13.345Z,98105.53
2022-10-07T16:26:39.916Z,98104.56
2022-10-07T16:29:31.162Z,98103.59
2022-10-07T16:31:59.187Z,98102.41
2022-10-07T16:34:28.058Z,98098.34
2022-10-07T16:36:55.712Z,98100.91
2022-10-07T16:39:22.608Z,98096.00
2022-10-07T16:41:51.782Z,98101.09
2022-10-07T16:44:19.382Z,98108.28
2022-10-07T16:46:46.626Z,98098.44
2022-10-07T16:49:15.667Z,98106.66
2022-10-07T16:51:42.835Z,98103.53
2022-10-07T16:54:15.839Z,98099.72
2022-10-07T16:56:47.034Z,98101.91
2022-10-07T16:59:22.300Z,98104.97
2022-10-07T17:01:51.755Z,98103.66
2022-10-07T17:04:18.582Z,98098.91
2022-10-07T17:06:45.646Z,98100.06
2022-10-07T17:09:13.129Z,98108.09
2022-10-07T17:11:40.485Z,98104.88
2022-10-07T17:14:18.745Z,98107.47
2022-10-07T17:16:53.301Z,98104.41
2022-10-07T17:19:22.509Z,98107.28
2022-10-07T17:21:50.372Z,98113.84
2022-10-07T17:24:18.783Z,98112.38
2022-10-07T17:26:46.400Z,98109.63
2022-10-07T17:29:16.517Z,98118.94
2022-10-07T17:31:43.879Z,98113.03
2022-10-07T17:34:11.987Z,98114.50
2022-10-07T17:36:39.348Z,98114.72
2022-10-07T17:39:06.214Z,98120.22
2022-10-07T17:41:35.055Z,98119.66
2022-10-07T17:44:03.422Z,98118.19
2022-10-07T17:46:33.037Z,98121.25
2022-10-07T17:49:02.073Z,98116.66
2022-10-07T17:51:31.264Z,98116.19
2022-10-07T17:54:02.540Z,98115.28
2022-10-07T17:56:31.983Z,98111.81
2022-10-07T17:58:59.151Z,98109.09
2022-10-07T18:01:31.928Z,98113.44
2022-10-07T18:04:00.812Z,98110.34
2022-10-07T18:06:30.374Z,98115.84
2022-10-07T18:08:59.190Z,98119.75
2022-10-07T18:11:46.577Z,98112.44
2022-10-07T18:14:31.709Z,98115.38
2022-10-07T18:16:58.450Z,98107.94
2022-10-07T18:19:26.543Z,98104.69
2022-10-07T18:21:56.254Z,98104.38
2022-10-07T18:24:29.344Z,98110.91
2022-10-07T18:27:00.256Z,98096.63
2022-10-07T18:29:31.951Z,98099.59
2022-10-07T18:31:59.842Z,98103.84
2022-10-07T18:34:26.699Z,98102.63
2022-10-07T18:36:56.508Z,98096.22
2022-10-07T18:39:24.371Z,98092.34
2022-10-07T18:41:51.411Z,98095.09
2022-10-07T18:44:18.026Z,98087.81
2022-10-07T18:46:44.859Z,98091.19
2022-10-07T18:49:19.343Z,98086.25
2022-10-07T18:51:47.414Z,98093.94
2022-10-07T18:54:14.135Z,98094.16
2022-10-07T18:56:41.712Z,98094.72
2022-10-07T18:59:09.953Z,98085.09
2022-10-07T19:01:37.692Z,98093.69
2022-10-07T19:04:05.856Z,98088.97
2022-10-07T19:06:35.124Z,98085.31
2022-10-07T19:09:05.258Z,98092.97
2022-10-07T19:11:31.978Z,98092.25
2022-10-07T19:14:01.614Z,98091.84
2022-10-07T19:16:37.341Z,98085.66
2022-10-07T19:19:18.777Z,98085.41
2022-10-07T19:21:47.460Z,98091.66
2022-10-07T19:24:15.635Z,98089.44
2022-10-07T19:26:45.133Z,98090.22
2022-10-07T19:29:13.446Z,98090.09
2022-10-07T19:31:42.939Z,98088.13
2022-10-07T19:34:18.929Z,98091.41
2022-10-07T19:36:48.627Z,98090.34
2022-10-07T19:39:21.027Z,98089.78
2022-10-07T19:41:48.214Z,98085.78
2022-10-07T19:44:16.312Z,98083.53
2022-10-07T19:46:44.603Z,98091.75
2022-10-07T19:49:11.963Z,98081.34
2022-10-07T19:51:40.256Z,98091.00
2022-10-07T19:54:10.124Z,98085.72
2022-10-07T19:56:37.761Z,98085.72
2022-10-07T19:59:07.319Z,98086.44
2022-10-07T20:01:37.513Z,98080.63
2022-10-07T20:04:11.062Z,98083.88
2022-10-07T20:06:37.805Z,98081.28
2022-10-07T20:09:06.739Z,98082.19
2022-10-07T20:11:33.776Z,98074.50
2022-10-07T20:14:02.987Z,98078.72
2022-10-07T20:16:31.225Z,98073.63
2022-10-07T20:19:05.801Z,98078.72
2022-10-07T20:21:35.750Z,98080.16
2022-10-07T20:24:04.129Z,98074.69
2022-10-07T20:26:33.390Z,98079.84
2022-10-07T20:29:04.467Z,98077.81
2022-10-07T20:31:34.785Z,98084.25
2022-10-07T20:34:02.747Z,98082.78
2022-10-07T20:36:31.854Z,98074.34
2022-10-07T20:39:18.996Z,98070.56
2022-10-07T20:42:04.553Z,98069.59
2022-10-07T20:44:31.330Z,98067.59
2022-10-07T20:46:58.372Z,98072.53
2022-10-07T20:49:29.990Z,98070.44
2022-10-07T20:52:02.193Z,98070.44
2022-10-07T20:54:29.866Z,98069.53
2022-10-07T20:56:57.942Z,98064.06
2022-10-07T20:59:26.414Z,98063.47
2022-10-07T21:01:53.818Z,98064.94
2022-10-07T21:04:21.608Z,98073.31
2022-10-07T21:06:52.287Z,98067.84
2022-10-07T21:09:19.679Z,98064.63
2022-10-07T21:11:47.322Z,98061.56
2022-10-07T21:14:14.534Z,98057.00
2022-10-07T21:16:42.247Z,98053.53
2022-10-07T21:19:09.002Z,98062.72
2022-10-07T21:21:35.715Z,98061.31
2022-10-07T21:24:02.317Z,98061.34
2022-10-07T21:26:28.893Z,98065.78
2022-10-07T21:28:55.674Z,98062.69
2022-10-07T21:31:22.770Z,98060.50
2022-10-07T21:33:51.874Z,98056.88
2022-10-07T21:36:22.096Z,98058.16
2022-10-07T21:38:58.240Z,98057.59
2022-10-07T21:41:27.705Z,98057.94
2022-10-07T21:43:55.967Z,98060.16
2022-10-07T21:46:24.509Z,98055.25
2022-10-07T21:48:52.118Z,98056.19
2022-10-07T21:51:18.662Z,98050.94
2022-10-07T21:53:51.087Z,98052.59
2022-10-07T21:56:17.713Z,98052.94
2022-10-07T21:58:46.908Z,98051.47
2022-10-07T22:01:16.536Z,98051.72
2022-10-07T22:03:43.918Z,98043.34
2022-10-07T22:06:16.202Z,98044.69
2022-10-07T22:08:45.001Z,98032.09
2022-10-07T22:11:19.403Z,98038.13
2022-10-07T22:13:55.271Z,98033.25
2022-10-07T22:16:22.974Z,98028.53
2022-10-07T22:18:51.880Z,98025.63
2022-10-07T22:21:24.625Z,98023.97
2022-10-07T22:23:53.913Z,98026.72
2022-10-07T22:26:23.899Z,98019.75
2022-10-07T22:28:50.820Z,98027.97
2022-10-07T22:31:18.328Z,98026.19
2022-10-07T22:33:51.156Z,98024.94
2022-10-07T22:36:18.010Z,98024.03
2022-10-07T22:38:44.901Z,98027.50
2022-10-07T22:41:16.437Z,98025.53
2022-10-07T22:43:44.677Z,98024.81
2022-10-07T22:46:14.279Z,98026.09
2022-10-07T22:48:43.247Z,98013.88
2022-10-07T22:51:14.837Z,98032.84
2022-10-07T22:53:43.686Z,98022.47
2022-10-07T22:56:14.165Z,98020.84
2022-10-07T22:58:41.972Z,98026.31
2022-10-07T23:01:11.608Z,98019.72
2022-10-07T23:03:39.817Z,98014.78
2022-10-07T23:06:07.427Z,98023.56
2022-10-07T23:08:38.697Z,98021.72
2022-10-07T23:11:06.400Z,98019.94
2022-10-07T23:13:36.661Z,98024.69
2022-10-07T23:16:06.777Z,98022.63
2022-10-07T23:18:33.730Z,98023.00
2022-10-07T23:21:13.189Z,98023.19
2022-10-07T23:23:42.222Z,98011.13
2022-10-07T23:26:14.186Z,98018.81
2022-10-07T23:28:41.817Z,98017.84
2022-10-07T23:31:12.055Z,98019.31
2022-10-07T23:33:38.942Z,98026.78
2022-10-07T23:36:08.865Z,98020.78
2022-10-07T23:38:37.246Z,98010.72
2022-10-07T23:41:04.143Z,98014.34
2022-10-07T23:43:33.269Z,98017.25
2022-10-07T23:46:01.341Z,98012.31
2022-10-07T23:48:28.236Z,98021.06
2022-10-07T23:50:57.996Z,98014.47
2022-10-07T23:53:24.688Z,98012.81
2022-10-07T23:55:53.017Z,98011.75
2022-10-07T23:58:22.357Z,98010.63
